createdAt,value
2022-08-18T00:01:14.819Z,10.65
2022-08-18T00:03:55.425Z,9.35
2022-08-18T00:06:24.158Z,9.48
2022-08-18T00:08:55.277Z,9.45
2022-08-18T00:11:23.679Z,9.85
2022-08-18T00:13:50.444Z,9.88
2022-08-18T00:16:17.172Z,10.65
2022-08-18T00:18:43.885Z,11.00
2022-08-18T00:21:10.553Z,10.98
2022-08-18T00:23:38.689Z,9.93
2022-08-18T00:26:05.682Z,10.02
2022-08-18T00:28:32.522Z,10.02
2022-08-18T00:30:59.460Z,11.02
2022-08-18T00:33:26.417Z,10.98
2022-08-18T00:35:53.454Z,11.95
2022-08-18T00:38:24.366Z,11.98
2022-08-18T00:40:53.485Z,10.98
2022-08-18T00:43:24.940Z,11.52
2022-08-18T00:45:51.671Z,11.75
2022-08-18T00:48:18.825Z,11.43
2022-08-18T00:50:51.673Z,11.73
2022-08-18T00:53:30.597Z,11.27
2022-08-18T00:56:01.771Z,11.77
2022-08-18T00:58:34.484Z,12.32
2022-08-18T01:01:05.818Z,12.52
2022-08-18T01:03:36.344Z,13.25
2022-08-18T01:06:23.329Z,12.68
2022-08-18T01:08:50.072Z,11.85
2022-08-18T01:11:16.740Z,13.10
2022-08-18T01:13:43.709Z,12.73
2022-08-18T01:16:28.978Z,13.27
2022-08-18T01:19:14.575Z,13.90
2022-08-18T01:21:53.862Z,13.90
2022-08-18T01:24:46.119Z,12.02
2022-08-18T01:27:17.916Z,12.90
2022-08-18T01:29:46.582Z,14.40
2022-08-18T01:32:19.567Z,15.35
2022-08-18T01:34:48.219Z,14.07
2022-08-18T01:37:18.266Z,13.82
2022-08-18T01:41:23.094Z,15.65
2022-08-18T01:42:33.086Z,13.82
2022-08-18T01:44:59.772Z,13.95
2022-08-18T01:47:28.796Z,14.60
2022-08-18T01:50:00.975Z,13.02
2022-08-18T01:52:29.534Z,13.30
2022-08-18T01:54:57.995Z,15.18
2022-08-18T01:57:25.616Z,13.68
2022-08-18T01:59:52.407Z,15.60
2022-08-18T02:02:24.489Z,15.00
2022-08-18T02:04:56.441Z,14.95
2022-08-18T02:07:23.146Z,15.93
2022-08-18T02:10:03.854Z,15.63
2022-08-18T02:12:35.176Z,16.00
2022-08-18T02:15:01.940Z,17.50
2022-08-18T02:17:28.624Z,16.48
2022-08-18T02:19:56.025Z,16.65
2022-08-18T02:22:22.773Z,15.93
2022-08-18T02:24:50.169Z,15.68
2022-08-18T02:27:17.329Z,15.38
2022-08-18T02:29:44.049Z,15.85
2022-08-18T02:32:10.963Z,16.75
2022-08-18T02:34:37.810Z,15.48
2022-08-18T02:37:04.722Z,14.88
2022-08-18T02:39:35.362Z,16.17
2022-08-18T02:42:02.102Z,15.48
2022-08-18T02:44:28.865Z,14.70
2022-08-18T02:46:55.611Z,16.48
2022-08-18T02:49:22.472Z,16.08
2022-08-18T02:51:51.079Z,15.38
2022-08-18T02:54:19.519Z,16.88
2022-08-18T02:56:47.605Z,16.23
2022-08-18T02:59:17.211Z,15.75
2022-08-18T03:04:16.100Z,15.35
2022-08-18T03:06:45.376Z,16.17
2022-08-18T03:09:15.084Z,15.15
2022-08-18T03:14:11.802Z,15.75
2022-08-18T03:16:54.441Z,15.30
2022-08-18T03:19:29.623Z,14.70
2022-08-18T03:22:03.038Z,15.43
2022-08-18T03:24:31.609Z,15.00
2022-08-18T03:26:59.795Z,15.35
2022-08-18T03:29:31.123Z,14.23
2022-08-18T03:32:04.670Z,15.38
2022-08-18T03:34:32.325Z,15.27
2022-08-18T03:36:59.460Z,16.48
2022-08-18T03:39:28.033Z,15.95
2022-08-18T03:41:59.690Z,15.83
2022-08-18T03:44:32.555Z,15.98
2022-08-18T03:47:00.343Z,15.10
2022-08-18T03:49:27.159Z,14.57
2022-08-18T03:51:54.434Z,13.98
2022-08-18T03:54:21.187Z,14.93
2022-08-18T03:56:49.824Z,13.80
2022-08-18T03:59:23.506Z,14.15
2022-08-18T04:01:54.094Z,13.98
2022-08-18T04:04:26.673Z,13.00
2022-08-18T04:06:59.566Z,13.43
2022-08-18T04:09:28.532Z,12.38
2022-08-18T04:11:56.680Z,12.30
2022-08-18T04:14:29.071Z,12.43
2022-08-18T04:16:57.050Z,12.77
2022-08-18T04:19:26.874Z,11.40
2022-08-18T04:21:57.214Z,12.05
2022-08-18T04:24:25.983Z,12.85
2022-08-18T04:26:53.233Z,10.85
2022-08-18T04:29:21.683Z,11.05
2022-08-18T04:31:51.487Z,11.20
2022-08-18T04:34:20.721Z,10.90
2022-08-18T04:36:48.167Z,11.02
2022-08-18T04:39:15.138Z,10.60
2022-08-18T04:41:43.869Z,10.75
2022-08-18T04:44:11.585Z,11.32
2022-08-18T04:46:41.423Z,11.23
2022-08-18T04:49:10.308Z,9.77
2022-08-18T04:52:34.068Z,10.77
2022-08-18T04:56:53.167Z,11.85
2022-08-18T04:59:20.397Z,10.68
2022-08-18T05:01:47.793Z,10.30
2022-08-18T05:04:16.715Z,10.35
2022-08-18T05:06:45.162Z,10.07
2022-08-18T05:09:16.613Z,10.70
2022-08-18T05:11:50.729Z,9.43
2022-08-18T05:14:17.670Z,9.38
2022-08-18T05:16:48.830Z,9.02
2022-08-18T05:19:23.211Z,9.10
2022-08-18T05:21:51.393Z,8.98
2022-08-18T05:24:20.203Z,9.15
2022-08-18T05:26:48.784Z,9.55
2022-08-18T05:29:18.610Z,9.48
2022-08-18T05:34:40.302Z,9.07
2022-08-18T05:37:12.620Z,8.27
2022-08-18T05:42:50.043Z,8.73
2022-08-18T05:45:19.631Z,8.98
2022-08-18T05:50:18.438Z,13.43
2022-08-18T05:52:48.453Z,16.00
2022-08-18T05:55:47.654Z,12.75
2022-08-18T06:01:09.068Z,12.25
2022-08-18T06:03:46.339Z,13.75
2022-08-18T06:06:21.818Z,14.82
2022-08-18T06:09:27.177Z,14.60
2022-08-18T06:15:29.556Z,14.40
2022-08-18T06:18:25.068Z,13.43
2022-08-18T06:21:17.921Z,11.98
2022-08-18T06:24:09.239Z,11.95
2022-08-18T06:27:00.766Z,12.77
2022-08-18T06:30:02.109Z,13.40
2022-08-18T06:32:53.096Z,12.38
2022-08-18T06:38:52.959Z,12.30
2022-08-18T06:41:40.853Z,11.82
2022-08-18T06:44:21.138Z,12.43
2022-08-18T06:47:15.439Z,11.98
2022-08-18T06:49:54.782Z,11.85
2022-08-18T06:52:34.315Z,12.35
2022-08-18T06:57:35.863Z,12.82
2022-08-18T07:00:17.272Z,13.38
2022-08-18T07:02:50.217Z,12.40
2022-08-18T07:05:31.900Z,13.60
2022-08-18T07:08:19.178Z,13.40
2022-08-18T07:10:51.529Z,13.18
2022-08-18T07:13:20.991Z,13.45
2022-08-18T07:15:49.794Z,14.18
2022-08-18T07:18:28.728Z,13.70
2022-08-18T07:21:01.140Z,14.10
2022-08-18T07:23:40.240Z,13.70
2022-08-18T07:26:16.819Z,15.90
2022-08-18T07:28:49.083Z,16.20
2022-08-18T07:31:35.191Z,17.40
2022-08-18T07:34:13.111Z,18.95
2022-08-18T07:36:50.201Z,15.93
2022-08-18T07:39:28.111Z,16.92
2022-08-18T07:42:37.323Z,18.00
2022-08-18T07:45:26.611Z,18.50
2022-08-18T07:48:27.279Z,16.77
2022-08-18T07:51:04.126Z,16.10
2022-08-18T07:53:59.312Z,15.23
2022-08-18T07:56:47.146Z,16.10
2022-08-18T07:59:22.494Z,15.15
2022-08-18T08:01:57.818Z,18.25
2022-08-18T08:04:54.865Z,19.10
2022-08-18T08:07:26.122Z,17.92
2022-08-18T08:10:19.179Z,17.00
2022-08-18T08:13:09.558Z,18.98
2022-08-18T08:15:49.653Z,16.45
2022-08-18T08:18:27.680Z,16.30
2022-08-18T08:20:57.574Z,17.35
2022-08-18T08:23:27.457Z,17.83
2022-08-18T08:26:00.659Z,17.77
2022-08-18T08:28:39.495Z,19.10
2022-08-18T08:31:37.357Z,15.40
2022-08-18T08:34:16.937Z,16.40
2022-08-18T08:36:46.516Z,16.67
2022-08-18T08:42:29.540Z,16.38
2022-08-18T08:44:59.860Z,17.60
2022-08-18T08:47:33.020Z,18.08
2022-08-18T08:50:08.322Z,19.50
2022-08-18T08:53:00.882Z,20.38
2022-08-18T08:55:31.299Z,17.23
2022-08-18T08:58:09.517Z,17.98
2022-08-18T09:00:38.873Z,19.15
2022-08-18T09:03:47.414Z,18.70
2022-08-18T09:06:26.442Z,18.27
2022-08-18T09:08:53.125Z,19.02
2022-08-18T09:11:47.484Z,20.60
2022-08-18T09:14:41.510Z,21.15
2022-08-18T09:17:35.351Z,18.92
2022-08-18T09:20:12.503Z,20.13
2022-08-18T09:22:56.365Z,20.42
2022-08-18T09:25:37.627Z,19.80
2022-08-18T09:28:20.804Z,19.33
2022-08-18T09:31:03.062Z,17.52
2022-08-18T09:34:22.907Z,17.38
2022-08-18T09:37:14.324Z,19.90
2022-08-18T09:40:15.116Z,17.65
2022-08-18T09:42:57.849Z,18.65
2022-08-18T09:45:33.300Z,18.80
2022-08-18T09:51:18.368Z,17.90
2022-08-18T09:53:45.920Z,20.50
2022-08-18T09:59:10.942Z,19.88
2022-08-18T10:01:40.626Z,19.27
2022-08-18T10:07:15.798Z,26.70
2022-08-18T10:09:54.689Z,19.83
2022-08-18T10:12:49.975Z,22.38
2022-08-18T10:15:40.946Z,21.50
2022-08-18T10:18:39.618Z,23.33
2022-08-18T10:21:27.460Z,23.90
2022-08-18T10:24:36.397Z,21.48
2022-08-18T10:27:05.732Z,19.90
2022-08-18T10:29:41.777Z,24.20
2022-08-18T10:32:08.370Z,21.70
2022-08-18T10:34:52.540Z,21.02
2022-08-18T10:37:26.383Z,23.23
2022-08-18T10:39:59.711Z,22.92
2022-08-18T10:42:33.695Z,23.63
2022-08-18T10:45:25.452Z,22.42
2022-08-18T10:48:04.470Z,23.80
2022-08-18T10:50:37.724Z,22.77
2022-08-18T10:53:40.260Z,25.90
2022-08-18T10:56:31.704Z,24.17
2022-08-18T10:59:16.472Z,24.63
2022-08-18T11:02:08.636Z,22.42
2022-08-18T11:04:41.566Z,23.83
2022-08-18T11:07:14.612Z,26.65
2022-08-18T11:09:57.244Z,24.23
2022-08-18T11:13:07.574Z,21.42
2022-08-18T11:16:15.393Z,21.92
2022-08-18T11:18:49.741Z,22.00
2022-08-18T11:21:27.153Z,23.48
2022-08-18T11:24:04.681Z,24.35
2022-08-18T11:26:35.011Z,24.48
2022-08-18T11:29:19.117Z,26.25
2022-08-18T11:31:52.572Z,25.67
2022-08-18T11:34:25.943Z,24.65
2022-08-18T11:37:02.848Z,25.38
2022-08-18T11:39:47.629Z,25.52
2022-08-18T11:42:21.834Z,22.00
2022-08-18T11:44:55.224Z,22.30
2022-08-18T11:47:27.461Z,22.52
2022-08-18T11:50:08.370Z,22.55
2022-08-18T11:52:48.531Z,21.35
2022-08-18T11:55:28.876Z,20.05
2022-08-18T11:57:58.986Z,17.52
2022-08-18T12:00:57.288Z,17.58
2022-08-18T12:03:41.640Z,15.27
2022-08-18T12:06:20.233Z,14.65
2022-08-18T12:08:57.305Z,14.23
2022-08-18T12:14:31.571Z,12.45
2022-08-18T12:17:01.761Z,12.48
2022-08-18T12:19:31.230Z,10.95
2022-08-18T12:22:12.481Z,12.25
2022-08-18T12:24:39.572Z,10.85
2022-08-18T12:29:57.553Z,9.43
2022-08-18T12:32:46.968Z,10.18
2022-08-18T12:35:13.688Z,7.85
2022-08-18T12:38:11.464Z,8.43
2022-08-18T12:40:32.245Z,8.82
2022-08-18T12:42:59.713Z,8.63
2022-08-18T12:45:28.075Z,8.15
2022-08-18T12:47:55.761Z,9.77
2022-08-18T12:50:30.753Z,8.00
2022-08-18T12:52:58.877Z,7.80
2022-08-18T12:55:34.195Z,9.45
2022-08-18T12:58:02.071Z,8.88
2022-08-18T13:03:15.389Z,9.00
2022-08-18T13:05:42.776Z,8.85
2022-08-18T13:08:27.688Z,8.98
2022-08-18T13:11:15.164Z,10.95
2022-08-18T13:13:52.723Z,9.57
2022-08-18T13:16:38.798Z,10.15
2022-08-18T13:19:10.640Z,10.48
2022-08-18T13:21:40.854Z,9.88
2022-08-18T13:24:09.563Z,10.65
2022-08-18T13:26:45.917Z,10.05
2022-08-18T13:29:14.166Z,9.95
2022-08-18T13:31:40.925Z,10.50
2022-08-18T13:34:19.320Z,9.85
2022-08-18T13:36:48.141Z,9.45
2022-08-18T13:39:21.408Z,10.43
2022-08-18T13:41:51.772Z,9.60
2022-08-18T13:44:21.172Z,9.55
2022-08-18T13:46:48.991Z,10.00
2022-08-18T13:49:18.407Z,9.77
2022-08-18T13:51:53.358Z,8.95
2022-08-18T13:54:31.372Z,9.27
2022-08-18T13:57:00.233Z,10.38
2022-08-18T13:59:32.965Z,10.50
2022-08-18T14:02:01.762Z,9.38
2022-08-18T14:04:28.871Z,9.73
2022-08-18T14:06:59.696Z,9.07
2022-08-18T14:09:36.703Z,9.68
2022-08-18T14:12:15.910Z,9.95
2022-08-18T14:14:52.117Z,9.95
2022-08-18T14:20:21.112Z,10.82
2022-08-18T14:23:12.737Z,10.18
2022-08-18T14:25:59.676Z,10.55
2022-08-18T14:28:27.384Z,10.45
2022-08-18T14:30:55.290Z,10.23
2022-08-18T14:33:33.942Z,9.82
2022-08-18T14:36:06.376Z,9.43
2022-08-18T14:38:36.371Z,9.82
2022-08-18T14:41:07.298Z,9.32
2022-08-18T14:43:50.816Z,8.93
2022-08-18T14:46:23.716Z,9.43
2022-08-18T14:48:56.579Z,9.57
2022-08-18T14:51:26.081Z,8.32
2022-08-18T14:53:53.902Z,8.23
2022-08-18T14:56:22.446Z,8.57
2022-08-18T14:58:51.228Z,8.75
2022-08-18T15:01:18.398Z,8.52
2022-08-18T15:03:45.426Z,8.82
2022-08-18T15:06:16.962Z,8.45
2022-08-18T15:08:49.282Z,8.80
2022-08-18T15:11:16.611Z,7.93
2022-08-18T15:13:45.351Z,8.82
2022-08-18T15:16:15.004Z,8.20
2022-08-18T15:18:43.542Z,8.07
2022-08-18T15:21:38.412Z,11.10
2022-08-18T15:24:24.881Z,14.30
2022-08-18T15:27:05.552Z,13.00
2022-08-18T15:29:33.109Z,14.38
2022-08-18T15:32:05.684Z,12.50
2022-08-18T15:34:46.676Z,12.45
2022-08-18T15:37:20.237Z,11.45
2022-08-18T15:39:55.541Z,11.30
2022-08-18T15:42:23.607Z,10.18
2022-08-18T15:44:51.688Z,11.30
2022-08-18T15:47:21.242Z,10.60
2022-08-18T15:49:48.428Z,11.27
2022-08-18T15:52:17.869Z,13.57
2022-08-18T15:54:50.432Z,15.45
2022-08-18T15:57:36.036Z,14.35
2022-08-18T16:00:06.572Z,14.30
2022-08-18T16:02:33.728Z,12.23
2022-08-18T16:05:10.261Z,13.35
2022-08-18T16:07:41.127Z,13.40
2022-08-18T16:10:23.036Z,12.68
2022-08-18T16:15:22.277Z,14.23
2022-08-18T16:17:54.965Z,14.10
2022-08-18T16:20:26.228Z,14.40
2022-08-18T16:22:53.652Z,14.45
2022-08-18T16:25:20.860Z,15.55
2022-08-18T16:27:48.030Z,18.10
2022-08-18T16:30:18.440Z,18.33
2022-08-18T16:32:45.671Z,21.85
2022-08-18T16:35:13.205Z,20.77
2022-08-18T16:37:40.502Z,22.65
2022-08-18T16:40:08.896Z,23.05
2022-08-18T16:42:36.810Z,23.40
2022-08-18T16:48:02.558Z,21.98
2022-08-18T16:50:30.094Z,23.40
2022-08-18T16:55:55.631Z,24.00
2022-08-18T16:58:41.142Z,24.55
2022-08-18T17:01:26.740Z,23.17
2022-08-18T17:04:13.837Z,23.15
2022-08-18T17:06:47.544Z,23.20
2022-08-18T17:09:15.113Z,26.50
2022-08-18T17:11:51.359Z,23.02
2022-08-18T17:14:27.390Z,22.27
2022-08-18T17:16:55.307Z,21.58
2022-08-18T17:19:29.908Z,21.63
2022-08-18T17:21:57.238Z,21.38
2022-08-18T17:24:31.241Z,20.85
2022-08-18T17:27:26.308Z,20.10
2022-08-18T17:30:22.485Z,20.45
2022-08-18T17:33:15.550Z,19.52
2022-08-18T17:35:46.383Z,18.90
2022-08-18T17:38:36.359Z,18.70
2022-08-18T17:43:57.412Z,17.23
2022-08-18T17:46:30.786Z,17.23
2022-08-18T17:49:12.276Z,16.85
2022-08-18T17:54:46.107Z,14.90
2022-08-18T17:57:24.003Z,15.30
2022-08-18T18:00:15.431Z,23.13
2022-08-18T18:02:50.456Z,22.67
2022-08-18T18:05:20.165Z,15.68
2022-08-18T18:07:52.887Z,19.83
2022-08-18T18:13:33.316Z,17.40
2022-08-18T18:16:19.324Z,16.98
2022-08-18T18:19:00.023Z,15.25
2022-08-18T18:21:53.467Z,15.77
2022-08-18T18:27:36.075Z,14.85
2022-08-18T18:30:27.728Z,18.25
2022-08-18T18:33:02.964Z,15.10
2022-08-18T18:35:33.992Z,19.58
2022-08-18T18:38:22.844Z,16.85
2022-08-18T18:41:00.129Z,18.15
2022-08-18T18:43:39.106Z,23.23
2022-08-18T18:46:29.803Z,18.42
2022-08-18T18:49:19.534Z,18.83
2022-08-18T18:52:04.101Z,18.60
2022-08-18T18:54:50.035Z,19.90
2022-08-18T18:57:41.911Z,19.10
2022-08-18T19:00:25.347Z,20.80
2022-08-18T19:03:02.850Z,19.58
2022-08-18T19:06:03.985Z,21.48
2022-08-18T19:08:36.151Z,19.85
2022-08-18T19:11:11.933Z,22.95
2022-08-18T19:16:41.333Z,20.15
2022-08-18T19:19:37.833Z,18.80
2022-08-18T19:22:19.045Z,19.60
2022-08-18T19:24:54.381Z,18.75
2022-08-18T19:27:29.520Z,18.55
2022-08-18T19:32:55.874Z,17.23
2022-08-18T19:35:37.938Z,17.70
2022-08-18T19:38:07.682Z,17.55
2022-08-18T19:43:57.289Z,17.40
2022-08-18T19:46:34.989Z,17.15
2022-08-18T19:49:28.335Z,16.75
2022-08-18T19:52:01.841Z,16.25
2022-08-18T19:54:40.962Z,17.02
2022-08-18T20:00:48.955Z,16.77
2022-08-18T20:04:00.170Z,17.77
2022-08-18T20:06:56.000Z,15.85
2022-08-18T20:09:43.654Z,17.02
2022-08-18T20:15:19.395Z,16.85
2022-08-18T20:18:21.573Z,17.63
2022-08-18T20:24:18.534Z,15.98
2022-08-18T20:26:49.187Z,28.75
2022-08-18T20:29:18.501Z,37.40
2022-08-18T20:31:51.559Z,108.72
2022-08-18T20:34:29.764Z,75.18
2022-08-18T20:37:01.837Z,28.55
2022-08-18T20:39:49.154Z,26.45
2022-08-18T20:42:26.542Z,23.63
2022-08-18T20:44:59.150Z,26.20
2022-08-18T20:47:29.239Z,27.45
2022-08-18T20:50:08.469Z,22.73
2022-08-18T20:56:32.299Z,18.33
2022-08-18T20:59:25.836Z,17.77
2022-08-18T21:01:59.644Z,25.27
2022-08-18T21:08:02.855Z,20.77
2022-08-18T21:10:32.571Z,18.08
2022-08-18T21:13:05.150Z,16.67
2022-08-18T21:15:38.193Z,16.42
2022-08-18T21:18:22.374Z,17.40
2022-08-18T21:20:59.974Z,19.35
2022-08-18T21:23:33.872Z,18.67
2022-08-18T21:29:06.786Z,17.23
2022-08-18T21:31:44.061Z,20.63
2022-08-18T21:37:26.207Z,16.27
2022-08-18T21:39:58.498Z,17.35
2022-08-18T21:45:47.425Z,17.38
2022-08-18T21:48:15.001Z,17.23
2022-08-18T21:50:51.583Z,17.83
2022-08-18T21:53:24.052Z,18.98
2022-08-18T21:55:56.323Z,17.83
2022-08-18T21:58:44.975Z,18.08
2022-08-18T22:01:25.020Z,17.53
2022-08-18T22:03:59.754Z,17.35
2022-08-18T22:10:17.920Z,18.02
2022-08-18T22:13:15.492Z,17.00
2022-08-18T22:15:53.485Z,17.10
2022-08-18T22:18:37.527Z,19.70
2022-08-18T22:21:07.290Z,17.63
2022-08-18T22:24:02.971Z,17.80
2022-08-18T22:26:36.977Z,18.98
2022-08-18T22:29:04.613Z,44.63
2022-08-18T22:31:37.200Z,72.00
2022-08-18T22:34:08.359Z,27.90
2022-08-18T22:36:39.511Z,43.97
2022-08-18T22:39:12.276Z,47.35
2022-08-18T22:41:41.167Z,35.40
2022-08-18T22:44:08.621Z,26.90
2022-08-18T22:46:37.407Z,19.95
2022-08-18T22:49:05.377Z,22.07
2022-08-18T22:51:36.437Z,17.27
2022-08-18T22:54:08.480Z,20.92
2022-08-18T22:56:37.993Z,18.05
2022-08-18T23:04:36.614Z,20.92
2022-08-18T23:07:03.557Z,17.83
2022-08-18T23:09:33.482Z,18.17
2022-08-18T23:12:04.504Z,18.98
2022-08-18T23:14:32.938Z,18.23
2022-08-18T23:17:01.794Z,19.77
2022-08-18T23:19:31.451Z,19.75
2022-08-18T23:22:00.203Z,19.58
2022-08-18T23:24:28.093Z,19.80
2022-08-18T23:26:54.867Z,21.42
2022-08-18T23:29:22.160Z,19.85
2022-08-18T23:31:50.672Z,19.77
2022-08-18T23:34:23.741Z,19.45
2022-08-18T23:37:01.182Z,19.40
2022-08-18T23:39:30.402Z,19.85
2022-08-18T23:41:57.587Z,19.98
2022-08-18T23:44:27.678Z,19.92
2022-08-18T23:46:56.226Z,20.92
2022-08-18T23:49:23.439Z,18.52
2022-08-18T23:51:51.515Z,18.38
2022-08-18T23:54:24.510Z,19.33
2022-08-18T23:56:51.205Z,19.40
2022-08-18T23:59:20.531Z,17.85
